Time;durP1;ratioP1;P1;durP2;ratioP2;P2;SDS_P1;SDS_P2;PMS_P1;PMS_P2;Temp;Humidity;BMP_temperature;BMP_pressure;BME280_temperature;BME280_humidity;BME280_pressure;Samples;Min_cycle;Max_cycle;Signal;HPM_P1;HPM_P2
2022/03/17 00:00:32;;;;;;;;;6.50;4.50;;;;;13.03;72.02;102016.31;5072970;27;45530;-71
2022/03/17 00:02:58;;;;;;;;;3.50;3.50;;;;;13.02;72.18;102017.25;5073512;28;45446;-71
2022/03/17 00:05:23;;;;;;;;;7.25;6.00;;;;;13.01;72.00;102018.16;5071585;27;45422;-70
2022/03/17 00:07:48;;;;;;;;;4.00;4.00;;;;;13.01;72.08;102019.94;5071579;27;45475;-71
2022/03/17 00:10:15;;;;;;;;;6.00;6.00;;;;;13.00;72.08;102015.56;5072816;27;45424;-71
2022/03/17 00:12:45;;;;;;;;;8.25;6.00;;;;;12.96;72.28;102029.78;5072933;27;45422;-71
2022/03/17 00:15:11;;;;;;;;;10.75;6.25;;;;;12.93;72.25;102020.16;5077907;27;46997;-71
2022/03/17 00:17:37;;;;;;;;;11.25;8.50;;;;;12.91;72.10;102029.06;5074954;28;46183;-71
2022/03/17 00:20:06;;;;;;;;;7.00;5.25;;;;;12.89;72.42;102025.59;5076139;27;45278;-71
2022/03/17 00:22:31;;;;;;;;;6.50;5.50;;;;;12.86;72.12;102030.97;5076184;27;45435;-70
2022/03/17 00:24:56;;;;;;;;;8.25;5.50;;;;;12.83;72.15;102034.56;5076815;27;45446;-71
2022/03/17 00:27:22;;;;;;;;;10.00;7.33;;;;;12.79;72.10;102041.72;5075674;28;63667;-71
2022/03/17 00:29:50;;;;;;;;;10.50;9.50;;;;;12.81;72.47;102049.59;5078017;28;45412;-71
2022/03/17 00:32:16;;;;;;;;;10.50;10.00;;;;;12.79;72.44;102054.06;5075698;27;45351;-71
2022/03/17 00:37:25;;;;;;;;;11.00;8.00;;;;;12.77;72.53;102071.69;5074179;28;45717;-71
2022/03/17 00:39:52;;;;;;;;;9.25;7.50;;;;;12.76;72.51;102070.84;5074716;27;45391;-71
2022/03/17 00:42:18;;;;;;;;;13.25;12.00;;;;;12.74;72.67;102061.25;5076827;27;45403;-71
2022/03/17 00:44:44;;;;;;;;;16.50;11.00;;;;;12.73;72.82;102067.41;5077497;28;45438;-71
2022/03/17 00:47:09;;;;;;;;;17.00;14.50;;;;;12.69;73.09;102073.72;5074296;27;45835;-71
2022/03/17 00:49:34;;;;;;;;;11.00;10.25;;;;;12.65;72.89;102075.56;5075803;27;45324;-71
2022/03/17 00:52:00;;;;;;;;;17.25;12.75;;;;;12.61;72.99;102084.47;5075981;27;45245;-71
2022/03/17 00:54:26;;;;;;;;;17.00;14.25;;;;;12.60;73.18;102088.03;5075767;27;45468;-71
2022/03/17 00:56:52;;;;;;;;;13.75;12.25;;;;;12.57;72.97;102090.75;5078043;27;46413;-71
2022/03/17 00:59:18;;;;;;;;;13.25;12.25;;;;;12.56;72.90;102093.44;5075572;27;45407;-71
2022/03/17 01:01:43;;;;;;;;;15.50;14.50;;;;;12.53;73.33;102097.91;5075126;27;45505;-71
2022/03/17 01:04:08;;;;;;;;;20.50;16.75;;;;;12.54;73.58;102109.31;5075343;27;45428;-70
2022/03/17 01:06:33;;;;;;;;;15.25;14.50;;;;;12.52;73.43;102111.97;5075171;27;53353;-71
2022/03/17 01:08:59;;;;;;;;;14.50;13.25;;;;;12.51;73.60;102101.47;5077152;27;47883;-70
2022/03/17 01:11:24;;;;;;;;;24.25;20.25;;;;;12.49;73.47;102108.59;5075916;27;45393;-71
2022/03/17 01:13:49;;;;;;;;;18.25;14.50;;;;;12.48;73.74;102106.88;5075410;27;45312;-71
2022/03/17 01:16:15;;;;;;;;;24.25;19.50;;;;;12.46;73.95;102098.97;5073296;27;52251;-70
2022/03/17 01:18:40;;;;;;;;;19.25;18.25;;;;;12.45;73.88;102114.84;5073876;27;45399;-71
2022/03/17 01:21:06;;;;;;;;;19.25;16.75;;;;;12.43;73.76;102125.44;5078010;27;45281;-71
2022/03/17 01:23:32;;;;;;;;;17.75;16.00;;;;;12.42;73.71;102120.19;5075392;27;45695;-71
2022/03/17 01:25:58;;;;;;;;;27.50;17.50;;;;;12.42;73.85;102125.47;5072803;27;46924;-71
2022/03/17 01:28:23;;;;;;;;;23.00;15.50;;;;;12.40;73.66;102132.56;5075078;27;45442;-71
2022/03/17 01:30:50;;;;;;;;;18.00;17.25;;;;;12.37;74.10;102136.19;5075049;27;45436;-71
2022/03/17 01:33:15;;;;;;;;;21.50;18.25;;;;;12.39;73.98;102141.41;5075874;27;45323;-71
2022/03/17 01:35:41;;;;;;;;;20.25;18.50;;;;;12.39;73.91;102147.53;5075797;28;45910;-70
2022/03/17 01:38:06;;;;;;;;;21.25;18.50;;;;;12.37;73.97;102141.44;5075127;27;45299;-71
2022/03/17 01:40:32;;;;;;;;;24.00;17.75;;;;;12.37;73.79;102151.09;5075055;28;45339;-71
2022/03/17 01:42:58;;;;;;;;;18.75;15.25;;;;;12.37;74.17;102151.09;5074809;27;51767;-71
2022/03/17 01:45:25;;;;;;;;;18.25;16.25;;;;;12.37;74.04;102157.28;5074593;27;46190;-71
2022/03/17 01:47:50;;;;;;;;;21.00;18.50;;;;;12.36;74.09;102163.41;5077315;27;45817;-71
2022/03/17 01:50:17;;;;;;;;;19.25;13.25;;;;;12.35;74.10;102159.06;5074660;27;45439;-71
2022/03/17 01:52:43;;;;;;;;;23.00;20.25;;;;;12.34;74.23;102156.47;5074853;27;45488;-71
2022/03/17 01:55:10;;;;;;;;;23.75;16.00;;;;;12.34;74.39;102151.22;5073323;27;47091;-70
2022/03/17 01:57:38;;;;;;;;;22.25;20.25;;;;;12.33;74.38;102154.75;5072617;28;46172;-71
2022/03/17 02:00:07;;;;;;;;;19.75;16.00;;;;;12.33;74.38;102166.16;5076901;28;45391;-71
2022/03/17 02:02:32;;;;;;;;;26.25;19.00;;;;;12.32;74.46;102160.91;5074281;28;45296;-71
2022/03/17 02:04:58;;;;;;;;;19.00;17.25;;;;;12.32;74.55;102172.34;5073158;27;45313;-71
2022/03/17 02:07:23;;;;;;;;;26.75;20.50;;;;;12.31;74.50;102169.72;5074506;27;45456;-71
2022/03/17 02:09:49;;;;;;;;;24.50;19.50;;;;;12.30;74.29;102178.56;5074662;27;45772;-71
2022/03/17 02:15:05;;;;;;;;;22.25;17.25;;;;;12.26;74.61;102177.75;5076139;28;45541;-71
2022/03/17 02:17:32;;;;;;;;;19.25;17.00;;;;;12.23;74.37;102175.22;5074207;27;45907;-71
2022/03/17 02:19:59;;;;;;;;;27.50;20.00;;;;;12.21;74.46;102191.06;5074322;27;45226;-71
2022/03/17 02:22:26;;;;;;;;;19.75;17.25;;;;;12.19;74.85;102198.16;5074450;27;45521;-71
2022/03/17 02:27:46;;;;;;;;;20.50;19.25;;;;;12.18;74.89;102200.84;5073940;28;45487;-71
2022/03/17 02:30:15;;;;;;;;;20.00;16.50;;;;;12.19;74.79;102213.09;5072822;28;45307;-71
2022/03/17 02:32:41;;;;;;;;;21.00;17.25;;;;;12.18;74.91;102222.78;5090484;27;45468;-71
2022/03/17 02:35:09;;;;;;;;;22.75;17.50;;;;;12.20;74.81;102228.00;5072286;27;46886;-71
2022/03/17 02:37:35;;;;;;;;;17.75;17.00;;;;;12.19;74.66;102221.88;5073004;27;45341;-71
2022/03/17 02:40:04;;;;;;;;;24.75;19.00;;;;;12.16;74.57;102219.34;5074258;28;45475;-71
2022/03/17 02:42:30;;;;;;;;;15.50;15.00;;;;;12.14;74.68;102217.63;5073502;27;45360;-71
2022/03/17 02:44:56;;;;;;;;;17.75;15.25;;;;;12.13;74.33;102210.63;5076082;27;46901;-71
2022/03/17 02:47:21;;;;;;;;;20.75;17.00;;;;;12.12;74.32;102209.78;5073872;27;45289;-71
2022/03/17 02:49:47;;;;;;;;;21.00;18.75;;;;;12.11;74.59;102209.78;5073821;27;45560;-71
2022/03/17 02:52:12;;;;;;;;;19.00;16.00;;;;;12.11;74.25;102215.06;5073750;27;45489;-71
2022/03/17 02:54:38;;;;;;;;;20.50;17.25;;;;;12.10;74.48;102256.34;5073841;27;46005;-71
2022/03/17 02:57:06;;;;;;;;;23.00;18.00;;;;;12.09;74.35;102253.78;5074897;27;57415;-71
2022/03/17 02:59:31;;;;;;;;;16.00;15.75;;;;;12.05;74.29;102242.44;5074276;27;45373;-71
2022/03/17 03:01:56;;;;;;;;;25.25;15.25;;;;;12.02;74.22;102240.75;5073536;28;45958;-71
2022/03/17 03:04:22;;;;;;;;;16.33;16.00;;;;;12.00;74.17;102236.41;5073033;28;62992;-71
2022/03/17 03:06:47;;;;;;;;;13.75;13.25;;;;;11.96;74.09;102232.16;5073601;27;45405;-71
2022/03/17 03:09:13;;;;;;;;;15.50;13.75;;;;;11.93;74.07;102251.50;5075259;27;45351;-71
2022/03/17 03:11:39;;;;;;;;;15.75;13.75;;;;;11.89;73.67;102246.34;5074505;27;45379;-71
2022/03/17 03:14:07;;;;;;;;;17.00;14.25;;;;;11.82;73.82;102257.94;5071993;27;46277;-71
2022/03/17 03:16:34;;;;;;;;;13.00;12.00;;;;;11.80;73.97;102265.88;5072163;27;45353;-71
2022/03/17 03:18:59;;;;;;;;;16.50;13.75;;;;;11.75;73.71;102254.56;5073661;27;45498;-71
2022/03/17 03:21:24;;;;;;;;;14.50;13.50;;;;;11.71;73.94;102253.75;5074429;27;45279;-71
2022/03/17 03:23:50;;;;;;;;;16.25;14.25;;;;;11.68;74.09;102256.47;5073369;28;53052;-70
2022/03/17 03:26:15;;;;;;;;;15.50;12.00;;;;;11.63;74.05;102258.34;5072823;27;45292;-71
2022/03/17 03:28:41;;;;;;;;;11.00;11.00;;;;;11.61;74.25;102257.50;5073092;27;45317;-71
2022/03/17 03:31:08;;;;;;;;;19.25;14.25;;;;;11.59;74.06;102253.16;5073811;28;45309;-71
2022/03/17 03:33:33;;;;;;;;;22.25;18.25;;;;;11.53;74.28;102264.69;5073323;27;46421;-71
2022/03/17 03:38:42;;;;;;;;;16.50;12.25;;;;;11.48;74.38;102275.38;5074700;28;45382;-71
2022/03/17 03:41:08;;;;;;;;;19.25;16.75;;;;;11.46;74.42;102269.25;5072316;27;45717;-71
2022/03/17 03:43:33;;;;;;;;;14.75;14.75;;;;;11.44;74.41;102288.63;5072930;27;57025;-71
2022/03/17 03:45:58;;;;;;;;;23.00;20.00;;;;;11.42;74.64;102290.41;5073100;27;45298;-71
2022/03/17 03:48:24;;;;;;;;;20.50;16.00;;;;;11.44;74.83;102299.16;5072687;27;45375;-71
2022/03/17 03:50:50;;;;;;;;;17.25;16.50;;;;;11.43;74.89;102297.41;5075413;27;45505;-71
2022/03/17 03:53:15;;;;;;;;;18.25;16.00;;;;;11.43;74.86;102305.28;5071000;27;45346;-70
2022/03/17 03:55:40;;;;;;;;;20.25;16.50;;;;;11.42;74.78;102307.06;5071246;28;45592;-72
2022/03/17 03:58:06;;;;;;;;;18.75;16.25;;;;;11.40;74.92;102319.41;5073014;27;45601;-70
2022/03/17 04:02:57;;;;;;;;;19.00;15.75;;;;;11.40;75.02;102329.94;5073763;28;45331;-70
2022/03/17 04:05:28;;;;;;;;;19.00;17.00;;;;;11.41;75.02;102336.06;5072722;27;45750;-71
2022/03/17 04:07:56;;;;;;;;;20.75;16.75;;;;;11.41;74.83;102341.31;5073146;27;45458;-71
2022/03/17 04:10:26;;;;;;;;;18.75;15.75;;;;;11.41;74.77;102344.81;5072577;27;45449;-71
2022/03/17 04:12:52;;;;;;;;;12.50;12.00;;;;;11.42;74.62;102345.69;5071691;27;45655;-71
2022/03/17 04:15:17;;;;;;;;;14.00;11.25;;;;;11.41;74.40;102342.19;5073449;28;45917;-71
2022/03/17 04:17:43;;;;;;;;;20.00;14.00;;;;;11.39;74.30;102353.66;5074055;28;45421;-71
2022/03/17 04:20:09;;;;;;;;;15.00;12.75;;;;;11.35;74.19;102354.63;5072314;28;52583;-71
2022/03/17 04:22:35;;;;;;;;;12.50;11.50;;;;;11.30;73.97;102359.97;5071845;27;45408;-71
2022/03/17 04:25:00;;;;;;;;;12.50;12.00;;;;;11.28;73.89;102366.19;5069435;27;45549;-71
2022/03/17 04:27:26;;;;;;;;;14.25;11.75;;;;;11.21;73.15;102371.53;5072653;28;45962;-71
2022/03/17 04:29:51;;;;;;;;;9.25;9.00;;;;;11.15;72.95;102373.44;5074952;27;45289;-71
2022/03/17 04:32:16;;;;;;;;;7.75;7.75;;;;;11.10;73.06;102370.03;5071072;28;46364;-72
2022/03/17 04:34:42;;;;;;;;;13.50;10.25;;;;;11.06;72.96;102377.09;5071244;27;45700;-71
2022/03/17 04:37:08;;;;;;;;;11.25;7.75;;;;;11.02;73.23;102383.34;5072000;27;45509;-71
2022/03/17 04:39:33;;;;;;;;;13.00;9.00;;;;;11.01;73.22;102393.84;5072467;27;45601;-71
2022/03/17 04:41:58;;;;;;;;;16.00;13.00;;;;;10.99;73.25;102401.78;5074101;27;51491;-71
2022/03/17 04:44:24;;;;;;;;;11.25;9.00;;;;;10.97;73.03;102407.09;5072204;27;45429;-71
2022/03/17 04:46:50;;;;;;;;;7.50;7.50;;;;;10.95;72.81;102408.00;5071792;27;45388;-71
2022/03/17 04:49:16;;;;;;;;;6.75;4.25;;;;;10.89;72.42;102410.75;5073207;27;45514;-71
2022/03/17 04:51:41;;;;;;;;;9.25;7.25;;;;;10.84;72.44;102402.06;5072194;27;46078;-71
2022/03/17 04:54:06;;;;;;;;;8.75;8.25;;;;;10.82;72.48;102424.91;5074436;27;45400;-71
2022/03/17 04:56:32;;;;;;;;;10.00;7.25;;;;;10.77;72.41;102429.38;5072121;28;45256;-72
2022/03/17 04:58:57;;;;;;;;;8.75;7.75;;;;;10.74;72.20;102432.03;5072303;27;45300;-71
2022/03/17 05:01:23;;;;;;;;;9.75;7.25;;;;;10.70;72.41;102444.34;5086158;27;45901;-71
2022/03/17 05:03:49;;;;;;;;;6.25;5.25;;;;;10.68;72.07;102436.50;5074891;27;45479;-72
2022/03/17 05:06:16;;;;;;;;;9.50;6.75;;;;;10.68;71.99;102449.66;5077184;27;45488;-70
2022/03/17 05:08:42;;;;;;;;;6.00;5.50;;;;;10.73;72.24;102459.22;5075236;28;45489;-72
2022/03/17 05:11:09;;;;;;;;;9.75;6.00;;;;;10.77;72.17;102458.28;5073559;27;46190;-71
2022/03/17 05:13:35;;;;;;;;;6.00;5.50;;;;;10.79;71.94;102462.63;5073999;27;45929;-71
2022/03/17 05:16:02;;;;;;;;;8.25;5.00;;;;;10.76;71.99;102460.06;5075955;27;45313;-71
2022/03/17 05:18:27;;;;;;;;;9.50;7.00;;;;;10.74;71.63;102463.59;5075111;27;45419;-71
2022/03/17 05:20:53;;;;;;;;;7.50;7.50;;;;;10.69;71.88;102461.91;5075669;28;46278;-71
2022/03/17 05:23:20;;;;;;;;;9.75;8.25;;;;;10.65;71.69;102465.50;5072500;27;47720;-71
2022/03/17 05:25:47;;;;;;;;;10.25;8.75;;;;;10.61;71.91;102466.41;5074411;28;45382;-71
2022/03/17 05:28:13;;;;;;;;;6.00;6.00;;;;;10.64;71.98;102482.13;5075619;27;45311;-71
2022/03/17 05:30:40;;;;;;;;;8.50;6.75;;;;;10.68;72.02;102475.06;5074977;27;45964;-71
2022/03/17 05:33:07;;;;;;;;;9.75;8.75;;;;;10.68;72.04;102483.81;5072769;28;45745;-71
2022/03/17 05:35:33;;;;;;;;;6.75;6.75;;;;;10.65;71.75;102490.91;5074765;27;45355;-72
2022/03/17 05:37:59;;;;;;;;;8.00;6.75;;;;;10.60;71.73;102498.00;5074012;27;45500;-71
2022/03/17 05:40:25;;;;;;;;;10.25;10.00;;;;;10.51;71.96;102491.13;5074549;27;46842;-71
2022/03/17 05:42:53;;;;;;;;;9.00;8.00;;;;;10.48;71.93;102496.41;5075066;27;46050;-71
2022/03/17 05:45:20;;;;;;;;;9.25;5.75;;;;;10.45;71.93;102499.97;5075663;27;45410;-71
2022/03/17 05:47:51;;;;;;;;;8.50;7.25;;;;;10.44;72.09;102507.88;5076251;28;45240;-71
2022/03/17 05:50:22;;;;;;;;;9.75;8.75;;;;;10.43;72.35;102514.84;5072887;28;45751;-71
2022/03/17 05:52:48;;;;;;;;;12.00;9.25;;;;;10.43;72.59;102512.22;5073422;27;45456;-71
2022/03/17 05:55:15;;;;;;;;;8.00;7.50;;;;;10.46;72.72;102513.97;5074003;27;45539;-71
2022/03/17 05:57:42;;;;;;;;;9.00;6.25;;;;;10.50;72.66;102517.44;5067995;28;45537;-71
2022/03/17 06:00:10;;;;;;;;;11.50;9.25;;;;;10.54;72.35;102525.22;5076704;27;46124;-71
2022/03/17 06:02:37;;;;;;;;;8.75;7.25;;;;;10.59;72.24;102531.28;5074784;28;45768;-71
2022/03/17 06:05:04;;;;;;;;;9.00;7.50;;;;;10.63;72.18;102535.63;5073845;27;45336;-71
2022/03/17 06:07:43;;;;;;;;;9.00;9.00;;;;;10.65;72.18;102533.00;5074733;27;45403;-71
2022/03/17 06:10:12;;;;;;;;;10.00;8.25;;;;;10.66;72.04;102535.59;5073450;28;46440;-71
2022/03/17 06:12:38;;;;;;;;;9.00;9.00;;;;;10.67;72.02;102541.72;5064140;28;46025;-71
2022/03/17 06:15:05;;;;;;;;;6.50;6.50;;;;;10.67;72.13;102547.84;5076348;27;45445;-71
2022/03/17 06:17:42;;;;;;;;;11.75;9.25;;;;;10.67;72.03;102550.47;5074236;27;45702;-72
2022/03/17 06:20:10;;;;;;;;;13.25;9.25;;;;;10.65;71.86;102548.75;5073444;27;46309;-71
2022/03/17 06:22:43;;;;;;;;;9.00;7.00;;;;;10.65;71.85;102560.16;5074346;27;45808;-72
2022/03/17 06:25:11;;;;;;;;;10.75;9.25;;;;;10.64;71.85;102573.28;5074000;27;45419;-72
2022/03/17 06:27:37;;;;;;;;;7.25;7.00;;;;;10.63;72.06;102571.56;5065520;28;45462;-72
2022/03/17 06:30:08;;;;;;;;;9.00;9.00;;;;;10.64;71.89;102582.03;5075819;28;46150;-72
2022/03/17 06:32:34;;;;;;;;;10.50;10.50;;;;;10.65;72.09;102589.06;5072675;27;45846;-71
2022/03/17 06:35:00;;;;;;;;;10.25;8.00;;;;;10.65;72.03;102591.69;5073611;27;45480;-71
2022/03/17 06:37:25;;;;;;;;;12.75;8.00;;;;;10.68;72.03;102596.91;5073799;27;45571;-71
2022/03/17 06:39:53;;;;;;;;;9.50;8.50;;;;;10.70;71.83;102589.88;5073972;27;45907;-70
2022/03/17 06:42:18;;;;;;;;;11.25;10.50;;;;;10.74;71.77;102602.97;5073944;27;45975;-71
2022/03/17 06:44:44;;;;;;;;;6.75;6.75;;;;;10.75;71.53;102604.69;5075343;28;45241;-71
2022/03/17 06:47:09;;;;;;;;;9.25;7.75;;;;;10.74;71.48;102614.34;5073537;27;46954;-71
2022/03/17 06:49:34;;;;;;;;;8.00;6.75;;;;;10.78;71.45;102612.56;5072954;27;45366;-71
2022/03/17 06:52:00;;;;;;;;;8.25;8.00;;;;;10.80;71.35;102618.66;5073913;27;45451;-71
2022/03/17 06:54:25;;;;;;;;;16.75;7.25;;;;;10.82;71.10;102624.78;5073937;27;45490;-71
2022/03/17 06:56:50;;;;;;;;;27.00;27.00;;;;;10.83;71.22;102642.28;5075043;27;45559;-71
2022/03/17 06:59:16;;;;;;;;;13.75;9.50;;;;;10.86;71.15;102635.25;5072996;27;46972;-71
2022/03/17 07:01:41;;;;;;;;;10.00;10.00;;;;;10.87;70.97;102638.75;5073127;27;45309;-71
2022/03/17 07:04:06;;;;;;;;;8.50;7.50;;;;;10.89;70.72;102650.97;5072939;27;45650;-71
2022/03/17 07:06:32;;;;;;;;;10.00;7.33;;;;;10.85;70.07;102662.41;5072899;28;52148;-71
2022/03/17 07:08:57;;;;;;;;;35.50;31.75;;;;;10.81;69.61;102655.47;5075243;28;45934;-70
2022/03/17 07:11:22;;;;;;;;;15.00;9.50;;;;;10.80;69.28;102664.22;5072514;27;46002;-70
2022/03/17 07:13:48;;;;;;;;;23.25;23.00;;;;;10.82;69.58;102665.09;5072300;27;45392;-70
2022/03/17 07:16:13;;;;;;;;;27.25;25.25;;;;;10.81;69.22;102683.53;5071414;27;45463;-70
2022/03/17 07:18:39;;;;;;;;;91.25;70.75;;;;;10.81;69.05;102683.53;5073046;27;45922;-70
2022/03/17 07:21:04;;;;;;;;;78.50;57.50;;;;;10.81;69.17;102687.03;5074802;27;45262;-68
2022/03/17 07:23:29;;;;;;;;;47.00;40.00;;;;;10.83;69.06;102698.41;5071823;27;45456;-70
2022/03/17 07:25:55;;;;;;;;;54.50;44.75;;;;;10.83;68.66;102692.25;5072994;27;45274;-70
2022/03/17 07:28:21;;;;;;;;;24.75;20.50;;;;;10.82;68.57;102698.41;5073167;27;46003;-70
2022/03/17 07:30:47;;;;;;;;;17.75;15.00;;;;;10.83;68.67;102701.03;5072391;27;46093;-70
2022/03/17 07:33:12;;;;;;;;;21.75;18.75;;;;;10.81;68.48;102707.22;5073115;27;45316;-70
2022/03/17 07:35:38;;;;;;;;;10.00;9.00;;;;;10.81;68.41;102702.81;5073586;27;45677;-70
2022/03/17 07:38:05;;;;;;;;;13.50;11.50;;;;;10.81;68.48;102715.97;5072140;27;52380;-70
2022/03/17 07:40:30;;;;;;;;;10.50;8.75;;;;;10.81;68.42;102728.25;5072481;27;46359;-70
2022/03/17 07:42:55;;;;;;;;;10.00;9.00;;;;;10.82;68.57;102722.97;5072961;27;45646;-70
2022/03/17 07:45:21;;;;;;;;;12.25;10.25;;;;;10.86;68.79;102718.53;5073197;27;45530;-70
2022/03/17 07:47:47;;;;;;;;;8.25;7.00;;;;;10.88;68.46;102729.91;5073195;27;45970;-70
2022/03/17 07:50:14;;;;;;;;;12.25;9.00;;;;;10.90;68.37;102723.72;5071640;27;45718;-70
2022/03/17 07:52:40;;;;;;;;;14.50;13.50;;;;;10.96;68.36;102723.66;5072868;27;45413;-69
2022/03/17 07:55:07;;;;;;;;;13.50;4.00;;;;;11.00;68.03;102724.47;5071201;27;45391;-70
2022/03/17 07:57:35;;;;;;;;;9.00;8.00;;;;;10.98;67.76;102735.03;5072120;28;47114;-70
2022/03/17 08:00:01;;;;;;;;;13.25;9.50;;;;;11.04;67.61;102735.84;5074331;28;45374;-70
2022/03/17 08:02:27;;;;;;;;;16.25;14.00;;;;;11.09;67.83;102745.41;5072135;27;45474;-70
2022/03/17 08:04:53;;;;;;;;;12.50;10.00;;;;;11.13;67.39;102751.53;5072130;27;45303;-70
2022/03/17 08:07:19;;;;;;;;;6.00;6.00;;;;;11.16;67.56;102752.31;5071925;28;47052;-70
2022/03/17 08:09:45;;;;;;;;;9.75;9.00;;;;;11.14;67.33;102759.38;5072187;27;45356;-71
2022/03/17 08:12:10;;;;;;;;;8.00;6.75;;;;;11.13;66.42;102767.31;5074006;27;45410;-70
2022/03/17 08:14:36;;;;;;;;;37.75;34.25;;;;;11.17;67.25;102769.88;5072699;27;45410;-70
2022/03/17 08:17:01;;;;;;;;;12.75;8.75;;;;;11.20;66.88;102768.97;5070907;27;46031;-70
2022/03/17 08:19:27;;;;;;;;;8.50;8.00;;;;;11.21;66.71;102771.56;5071290;28;45531;-71
2022/03/17 08:21:52;;;;;;;;;10.50;9.00;;;;;11.28;66.62;102777.63;5072711;27;45443;-71
2022/03/17 08:24:18;;;;;;;;;22.00;19.50;;;;;11.34;67.04;102780.19;5073502;27;45304;-71
2022/03/17 08:26:43;;;;;;;;;24.50;17.50;;;;;11.43;66.53;102785.34;5072393;27;46296;-71
2022/03/17 08:29:08;;;;;;;;;8.00;7.25;;;;;11.49;65.99;102779.09;5070466;27;45461;-71
2022/03/17 08:31:34;;;;;;;;;12.50;12.25;;;;;11.54;66.18;102793.06;5070980;27;46339;-71
2022/03/17 08:34:00;;;;;;;;;11.25;9.25;;;;;11.59;65.88;102795.63;5072738;27;45626;-71
2022/03/17 08:36:26;;;;;;;;;90.00;76.25;;;;;11.66;66.11;102794.66;5075420;27;46894;-71
2022/03/17 08:38:52;;;;;;;;;66.50;51.25;;;;;11.71;65.30;102803.38;5077564;27;45426;-71
2022/03/17 08:41:18;;;;;;;;;59.50;46.25;;;;;11.75;65.27;102798.03;5074352;27;45476;-71
2022/03/17 08:43:44;;;;;;;;;26.25;22.75;;;;;11.81;65.42;102804.09;5075420;27;45457;-71
2022/03/17 08:51:37;;;;;;;;;14.25;14.25;;;;;11.93;64.57;102825.88;5067920;28;45469;-70
2022/03/17 08:54:02;;;;;;;;;17.50;14.50;;;;;12.01;64.46;102831.06;5077767;27;45491;-71
2022/03/17 08:56:28;;;;;;;;;10.00;8.50;;;;;12.05;64.20;102839.75;5075123;27;45398;-71
2022/03/17 08:58:54;;;;;;;;;11.00;11.00;;;;;12.08;63.84;102843.22;5075519;27;45372;-71
2022/03/17 09:01:19;;;;;;;;;11.75;10.75;;;;;12.13;63.76;102849.31;5076148;27;45521;-70
2022/03/17 09:03:44;;;;;;;;;8.50;8.50;;;;;12.13;63.27;102854.56;5073933;27;45453;-70
2022/03/17 09:06:11;;;;;;;;;11.00;10.50;;;;;12.12;63.79;102855.47;5077045;27;46314;-71
2022/03/17 09:08:36;;;;;;;;;10.25;8.25;;;;;12.02;62.90;102853.88;5074324;27;45305;-72
2022/03/17 09:11:01;;;;;;;;;17.50;10.00;;;;;12.00;63.14;102864.41;5075652;27;45453;-72
2022/03/17 09:13:28;;;;;;;;;49.00;41.00;;;;;12.06;63.03;102858.22;5073447;27;45478;-72
2022/03/17 09:15:55;;;;;;;;;62.25;49.00;;;;;12.14;63.12;102858.94;5075217;27;46288;-71
2022/03/17 09:18:21;;;;;;;;;18.00;14.50;;;;;12.24;62.74;102867.59;5075609;27;45331;-72
2022/03/17 09:20:47;;;;;;;;;12.50;10.00;;;;;12.32;62.63;102867.44;5076606;28;45379;-71
2022/03/17 09:23:13;;;;;;;;;62.50;50.50;;;;;12.36;62.08;102875.28;5075333;27;45380;-71
2022/03/17 09:25:39;;;;;;;;;10.00;9.00;;;;;12.39;61.92;102875.25;5075223;27;45921;-71
2022/03/17 09:28:05;;;;;;;;;9.00;6.00;;;;;12.39;61.96;102871.75;5071692;27;46134;-70
2022/03/17 09:30:31;;;;;;;;;9.50;6.50;;;;;12.27;61.82;102865.78;5073853;28;45498;-70
2022/03/17 09:32:58;;;;;;;;;22.75;21.00;;;;;12.28;62.23;102875.41;5076510;27;45708;-71
2022/03/17 09:35:25;;;;;;;;;9.25;8.75;;;;;12.34;61.42;102879.72;5073904;28;47125;-70
2022/03/17 09:37:50;;;;;;;;;14.00;12.25;;;;;12.42;61.71;102884.84;5072025;27;45950;-70
2022/03/17 09:40:16;;;;;;;;;23.75;16.25;;;;;12.46;61.44;102890.06;5070785;27;45826;-70
2022/03/17 09:42:42;;;;;;;;;38.75;32.50;;;;;12.48;60.97;102887.41;5070354;27;45395;-70
2022/03/17 09:45:09;;;;;;;;;23.00;16.75;;;;;12.56;61.33;102893.41;5070887;27;46275;-70
2022/03/17 09:47:37;;;;;;;;;16.25;14.75;;;;;12.71;61.40;102895.78;5077233;27;45596;-70
2022/03/17 09:50:05;;;;;;;;;12.25;8.50;;;;;12.82;60.79;102890.34;5075683;27;45475;-70
2022/03/17 09:52:31;;;;;;;;;13.25;7.25;;;;;12.85;60.81;102887.66;5091262;27;45650;-70
2022/03/17 09:54:57;;;;;;;;;9.00;6.00;;;;;12.87;60.19;102895.53;5072487;27;46337;-70
2022/03/17 09:57:22;;;;;;;;;11.00;10.00;;;;;12.79;59.73;102909.75;5074638;27;45635;-70
2022/03/17 09:59:49;;;;;;;;;11.00;11.00;;;;;12.82;59.95;102906.16;5076246;27;45490;-70
2022/03/17 10:02:16;;;;;;;;;21.25;21.25;;;;;12.89;60.03;102912.19;5072405;27;45581;-70
2022/03/17 10:04:44;;;;;;;;;17.25;14.25;;;;;12.91;59.34;102920.97;5074700;27;46125;-71
2022/03/17 10:07:14;;;;;;;;;24.00;17.75;;;;;12.90;59.22;102928.03;5075326;27;45511;-70
2022/03/17 10:09:40;;;;;;;;;12.50;9.25;;;;;12.86;59.27;102922.81;5055043;27;45702;-70
2022/03/17 10:12:10;;;;;;;;;15.25;12.75;;;;;12.88;59.65;102924.53;5078034;27;45385;-70
2022/03/17 10:14:45;;;;;;;;;7.50;5.00;;;;;12.83;59.07;102925.50;5074003;27;46885;-70
2022/03/17 10:17:35;;;;;;;;;39.50;35.50;;;;;12.83;59.13;102921.09;5072578;27;45465;-70
2022/03/17 10:20:25;;;;;;;;;16.75;11.50;;;;;12.86;59.43;102928.09;5074440;27;45762;-70
2022/03/17 10:22:52;;;;;;;;;11.75;11.00;;;;;12.89;59.32;102928.03;5074134;27;48402;-70
2022/03/17 10:25:31;;;;;;;;;8.75;8.75;;;;;12.97;59.13;102932.28;5073684;27;46136;-70
2022/03/17 10:27:57;;;;;;;;;15.50;11.25;;;;;13.02;58.93;102938.34;5058456;27;45345;-70
2022/03/17 10:30:32;;;;;;;;;24.00;15.25;;;;;13.04;58.66;102938.31;5072689;27;45419;-68
2022/03/17 10:33:03;;;;;;;;;17.75;16.00;;;;;13.11;59.32;102933.81;5074096;27;45617;-70
2022/03/17 10:35:36;;;;;;;;;13.50;10.00;;;;;13.19;58.78;102938.03;5070013;27;46216;-70
2022/03/17 10:38:16;;;;;;;;;15.75;14.50;;;;;13.20;58.72;102947.69;5074455;27;45554;-69
2022/03/17 10:40:44;;;;;;;;;14.75;10.25;;;;;13.23;58.26;102955.59;5073390;27;45714;-70
2022/03/17 10:43:17;;;;;;;;;15.75;8.00;;;;;13.25;58.17;102945.00;5074682;27;45406;-70
2022/03/17 10:45:43;;;;;;;;;11.75;9.50;;;;;13.27;57.89;102948.50;5054832;27;46346;-70
2022/03/17 10:48:09;;;;;;;;;10.75;8.75;;;;;13.20;58.02;102947.69;5076627;27;45646;-70
2022/03/17 10:50:42;;;;;;;;;64.25;50.25;;;;;13.19;57.57;102955.66;5074340;27;45682;-70
2022/03/17 10:53:09;;;;;;;;;17.00;13.75;;;;;13.27;58.12;102961.69;5074241;27;45438;-70
2022/03/17 10:55:36;;;;;;;;;35.75;30.75;;;;;13.35;58.16;102956.25;5075110;27;46246;-70
2022/03/17 10:58:11;;;;;;;;;9.75;8.00;;;;;13.29;57.53;102965.19;5070513;27;45335;-70
2022/03/17 11:00:51;;;;;;;;;10.25;9.50;;;;;13.25;57.46;102955.56;5053693;28;45549;-71
2022/03/17 11:03:19;;;;;;;;;20.75;18.00;;;;;13.34;57.20;102965.97;5078476;27;45371;-71
2022/03/17 11:05:44;;;;;;;;;17.75;16.00;;;;;13.39;57.81;102969.38;5074835;27;47326;-71
2022/03/17 11:08:10;;;;;;;;;9.00;9.00;;;;;13.40;57.33;102972.88;5078841;27;45541;-71
2022/03/17 11:10:38;;;;;;;;;21.75;14.25;;;;;13.36;57.57;102974.72;5083161;27;45456;-71
2022/03/17 11:13:09;;;;;;;;;34.75;33.50;;;;;13.42;57.21;102979.03;5069587;27;45981;-71
2022/03/17 11:15:38;;;;;;;;;29.25;23.00;;;;;13.52;57.54;102985.84;5069529;27;46125;-71
2022/03/17 11:18:06;;;;;;;;;40.00;33.75;;;;;13.57;57.55;102981.34;5074939;28;45424;-71
2022/03/17 11:20:32;;;;;;;;;13.25;12.25;;;;;13.59;57.25;102987.50;5072688;27;45454;-71
2022/03/17 11:23:15;;;;;;;;;12.75;11.50;;;;;13.57;57.08;102997.19;5073989;27;45540;-71
2022/03/17 11:25:45;;;;;;;;;10.50;10.50;;;;;13.47;56.56;102996.53;5071158;27;46367;-71
2022/03/17 11:28:10;;;;;;;;;24.25;20.00;;;;;13.47;56.77;102999.19;5071591;27;45443;-71
2022/03/17 11:30:44;;;;;;;;;11.75;9.75;;;;;13.50;57.01;102995.59;5055808;28;45382;-71